^^
Saratoga-Weather Station Historical Data
Daily Summary for June 21, 2020 Units:  English    Metric   Both
Daily Weekly Monthly Yearly Custom
  High: Low: Average:
Temperature: 77.2 °F 52.3 °F 65.8 °F
Dew Point: 61 °F 50.9 °F 55.9 °F
Humidity: 96% 48% 73%
Wind Speed: 12mph 0mph 1.6mph
Wind Gust: 12mph - -
Wind- - SW
Pressure: 30.1 in 30.1 in -
Precipitation: 0 in    
Historical Graphs
 
 
Tabular Data for June 21, 2020
Time Temperature Dew Point Pressure Wind Wind Speed Wind Gust Humidity Rainfall Rate (Hourly) solar
00:02 58.3 °F 54.5 °F 30.1 in Calm     87% 0 in 0 W/m2
00:07 58.1 °F 54.5 °F 30.1 in Calm     88% 0 in 0 W/m2
00:12 57.9 °F 54.3 °F 30.1 in Calm     88% 0 in 0 W/m2
00:17 57.9 °F 54.7 °F 30.1 in Calm     89% 0 in 0 W/m2
00:22 57.9 °F 54.7 °F 30.1 in Calm     89% 0 in 0 W/m2
00:27 58.1 °F 54.9 °F 30.1 in Calm     89% 0 in 0 W/m2
00:32 58.1 °F 54.9 °F 30.1 in Calm     89% 0 in 0 W/m2
00:37 58.1 °F 54.9 °F 30.1 in Calm     89% 0 in 0 W/m2
00:42 57.9 °F 54.7 °F 30.1 in Calm     89% 0 in 0 W/m2
00:47 57.9 °F 54.7 °F 30.1 in Calm     89% 0 in 0 W/m2
00:52 57.7 °F 54.5 °F 30.1 in Calm     89% 0 in 0 W/m2
00:58 57.7 °F 54.9 °F 30.1 in Calm     90% 0 in 0 W/m2
01:03 57.6 °F 54.7 °F 30.1 in Calm     90% 0 in 0 W/m2
01:08 57.6 °F 54.7 °F 30.1 in Calm     90% 0 in 0 W/m2
01:13 57.4 °F 54.5 °F 30.1 in Calm     90% 0 in 0 W/m2
01:18 57.4 °F 54.5 °F 30.1 in Calm     90% 0 in 0 W/m2
01:23 57.2 °F 54.3 °F 30.1 in Calm     90% 0 in 0 W/m2
01:28 57 °F 54.1 °F 30.1 in Calm     90% 0 in 0 W/m2
01:33 56.8 °F 54 °F 30.1 in Calm     90% 0 in 0 W/m2
01:38 56.7 °F 54.1 °F 30.1 in Calm     91% 0 in 0 W/m2
01:43 56.5 °F 54 °F 30.1 in Calm     91% 0 in 0 W/m2
01:48 56.3 °F 53.8 °F 30.1 in Calm     91% 0 in 0 W/m2
01:53 56.1 °F 53.6 °F 30.1 in Calm     91% 0 in 0 W/m2
01:58 56.1 °F 53.8 °F 30.1 in Calm     92% 0 in 0 W/m2
02:03 56.1 °F 53.8 °F 30.1 in Calm     92% 0 in 0 W/m2
02:08 56.1 °F 53.8 °F 30.1 in Calm     92% 0 in 0 W/m2
02:13 55.9 °F 53.6 °F 30.1 in Calm     92% 0 in 0 W/m2
02:19 55.9 °F 53.6 °F 30.1 in Calm     92% 0 in 0 W/m2
02:24 55.8 °F 53.4 °F 30.1 in Calm     92% 0 in 0 W/m2
02:29 55.6 °F 53.2 °F 30.1 in Calm     92% 0 in 0 W/m2
02:34 55.6 °F 53.2 °F 30.1 in Calm     92% 0 in 0 W/m2
02:39 55.2 °F 52.9 °F 30.1 in Calm     92% 0 in 0 W/m2
02:44 55.2 °F 52.9 °F 30.1 in Calm     92% 0 in 0 W/m2
02:49 55 °F 52.7 °F 30.1 in Calm     92% 0 in 0 W/m2
02:54 54.9 °F 52.5 °F 30.1 in Calm     92% 0 in 0 W/m2
02:59 54.9 °F 52.9 °F 30.1 in Calm     93% 0 in 0 W/m2
03:04 54.9 °F 52.9 °F 30.1 in Calm     93% 0 in 0 W/m2
03:09 54.7 °F 52.7 °F 30.1 in Calm     93% 0 in 0 W/m2
03:14 54.5 °F 52.5 °F 30.1 in Calm     93% 0 in 0 W/m2
03:19 54.3 °F 52.3 °F 30.1 in Calm     93% 0 in 0 W/m2
03:24 54.3 °F 52.3 °F 30.1 in Calm     93% 0 in 0 W/m2
03:29 54.3 °F 52.3 °F 30.1 in Calm     93% 0 in 0 W/m2
03:34 54.1 °F 52.5 °F 30.1 in Calm     94% 0 in 0 W/m2
03:40 54 °F 52 °F 30.1 in Calm     93% 0 in 0 W/m2
03:45 54 °F 52.3 °F 30.1 in Calm     94% 0 in 0 W/m2
03:50 53.8 °F 52.2 °F 30.1 in Calm     94% 0 in 0 W/m2
03:55 53.8 °F 52.2 °F 30.1 in Calm     94% 0 in 0 W/m2
04:00 53.8 °F 52.2 °F 30.1 in Calm     94% 0 in 0 W/m2
04:05 53.4 °F 51.8 °F 30.1 in Calm     94% 0 in 0 W/m2
04:10 53.4 °F 51.8 °F 30.1 in Calm     94% 0 in 0 W/m2
04:15 53.4 °F 51.8 °F 30.1 in Calm     94% 0 in 0 W/m2
04:21 53.4 °F 51.8 °F 30.1 in Calm     94% 0 in 0 W/m2
04:26 53.4 °F 51.8 °F 30.1 in Calm     94% 0 in 0 W/m2
04:31 53.4 °F 51.8 °F 30.1 in Calm     94% 0 in 0 W/m2
04:36 53.2 °F 51.8 °F 30.1 in Calm     95% 0 in 0 W/m2
04:41 53.2 °F 51.8 °F 30.1 in Calm     95% 0 in 0 W/m2
04:46 53.2 °F 51.8 °F 30.1 in Calm     95% 0 in 0 W/m2
04:51 53.1 °F 51.6 °F 30.1 in Calm     95% 0 in 0 W/m2
04:56 53.1 °F 51.6 °F 30.1 in Calm     95% 0 in 0 W/m2
05:01 53.1 °F 51.6 °F 30.1 in Calm     95% 0 in 0 W/m2
05:06 52.9 °F 51.4 °F 30.1 in Calm     95% 0 in 0 W/m2
05:11 52.7 °F 51.3 °F 30.1 in Calm     95% 0 in 0 W/m2
05:16 52.5 °F 51.1 °F 30.1 in Calm     95% 0 in 0 W/m2
05:21 52.5 °F 51.1 °F 30.1 in Calm     95% 0 in 0 W/m2
05:26 52.5 °F 51.1 °F 30.1 in Calm     95% 0 in 0 W/m2
05:31 52.3 °F 50.9 °F 30.1 in Calm     95% 0 in 0 W/m2
05:36 52.3 °F 50.9 °F 30.1 in Calm     95% 0 in 5 W/m2
05:42 52.3 °F 50.9 °F 30.1 in Calm     95% 0 in 7 W/m2
05:47 52.3 °F 50.9 °F 30.1 in Calm     95% 0 in 9 W/m2
05:52 52.3 °F 50.9 °F 30.1 in Calm     95% 0 in 11 W/m2
05:57 52.3 °F 50.9 °F 30.1 in Calm     95% 0 in 12 W/m2
06:02 52.3 °F 50.9 °F 30.1 in Calm     95% 0 in 16 W/m2
06:07 52.3 °F 50.9 °F 30.1 in Calm     95% 0 in 16 W/m2
06:12 52.3 °F 50.9 °F 30.1 in Calm     95% 0 in 19 W/m2
06:17 52.3 °F 50.9 °F 30.1 in Calm     95% 0 in 21 W/m2
06:22 52.3 °F 50.9 °F 30.1 in Calm     95% 0 in 23 W/m2
06:27 52.5 °F 51.4 °F 30.1 in Calm     96% 0 in 25 W/m2
06:32 52.5 °F 51.4 °F 30.1 in Calm     96% 0 in 26 W/m2
06:37 52.9 °F 51.8 °F 30.1 in Calm     96% 0 in 26 W/m2
06:42 53.1 °F 52 °F 30.1 in Calm     96% 0 in 28 W/m2
06:47 53.2 °F 52.2 °F 30.1 in Calm     96% 0 in 28 W/m2
06:53 53.2 °F 52.2 °F 30.1 in Calm     96% 0 in 30 W/m2
06:58 53.4 °F 52.3 °F 30.1 in Calm     96% 0 in 30 W/m2
07:03 53.8 °F 52.7 °F 30.1 in Calm     96% 0 in 32 W/m2
07:08 54 °F 52.9 °F 30.1 in Calm     96% 0 in 32 W/m2
07:13 54.1 °F 53.1 °F 30.1 in Calm     96% 0 in 33 W/m2
07:18 54.3 °F 53.2 °F 30.1 in Calm     96% 0 in 33 W/m2
07:23 54.7 °F 53.6 °F 30.1 in Calm     96% 0 in 35 W/m2
07:28 55 °F 54 °F 30.1 in Calm     96% 0 in 54 W/m2
07:33 55.6 °F 54.5 °F 30.1 in ENE 0.9 mph 3 mph 96% 0 in 37 W/m2
07:38 55.9 °F 54.9 °F 30.1 in Calm   1 mph 96% 0 in 72 W/m2
07:43 56.5 °F 55.4 °F 30.1 in East 2.9 mph 3 mph 96% 0 in 227 W/m2
07:48 56.8 °F 55.4 °F 30.1 in NE 2 mph 2 mph 95% 0 in 239 W/m2
07:53 57.7 °F 56.3 °F 30.1 in Calm   2 mph 95% 0 in 255 W/m2
07:59 58.5 °F 56.7 °F 30.1 in ENE 2 mph 2 mph 94% 0 in 265 W/m2
08:04 59.5 °F 57.2 °F 30.1 in ENE 2 mph 2 mph 92% 0 in 281 W/m2
08:09 60.6 °F 57.7 °F 30.1 in Calm   2 mph 90% 0 in 301 W/m2
08:14 61.2 °F 57.6 °F 30.1 in ENE 2 mph 2 mph 88% 0 in 315 W/m2
08:19 61.7 °F 57.4 °F 30.1 in ESE 2.9 mph 3 mph 86% 0 in 329 W/m2
08:24 62.4 °F 57.9 °F 30.1 in Calm   2 mph 85% 0 in 345 W/m2
08:29 63.3 °F 58.1 °F 30.1 in ENE 2 mph 2 mph 83% 0 in 362 W/m2
08:34 64.2 °F 58.6 °F 30.1 in East 0.9 mph 2 mph 82% 0 in 390 W/m2
08:39 64.8 °F 58.5 °F 30.1 in East 2 mph 3 mph 80% 0 in 420 W/m2
08:44 65.5 °F 58.8 °F 30.1 in Calm   2 mph 79% 0 in 450 W/m2
08:49 66 °F 59 °F 30.1 in ENE 0.9 mph 3 mph 78% 0 in 476 W/m2
08:54 66.4 °F 59 °F 30.1 in East 0.9 mph 3 mph 77% 0 in 455 W/m2
08:59 66.7 °F 59.4 °F 30.1 in East 0.9 mph 3 mph 77% 0 in 369 W/m2
09:05 66.7 °F 59.4 °F 30.1 in East 2 mph 2 mph 77% 0 in 399 W/m2
09:10 66.9 °F 59.2 °F 30.1 in ESE 0.9 mph 4 mph 76% 0 in 459 W/m2
09:15 67.5 °F 59.5 °F 30.1 in NE 2 mph 5 mph 76% 0 in 543 W/m2
09:20 67.5 °F 59.2 °F 30.1 in East 0.9 mph 2 mph 75% 0 in 418 W/m2
09:25 67.3 °F 59.5 °F 30.1 in ESE 0.9 mph 5 mph 76% 0 in 209 W/m2
09:30 67.3 °F 59.5 °F 30.1 in East 2 mph 3 mph 76% 0 in 359 W/m2
09:35 67.3 °F 59.9 °F 30.1 in East 2 mph 4 mph 77% 0 in 443 W/m2
09:40 67.6 °F 59.7 °F 30.1 in East 0.9 mph 4 mph 76% 0 in 677 W/m2
09:48 68.4 °F 60.1 °F 30.1 in NE 2.9 mph 4 mph 75% 0 in 719 W/m2
09:53 69.3 °F 60.6 °F 30.1 in Calm   6 mph 74% 0 in 733 W/m2
09:58 70 °F 61 °F 30.1 in North 2 mph 3 mph 73% 0 in 647 W/m2
10:03 69.6 °F 60.3 °F 30.1 in NNE 0.9 mph 5 mph 72% 0 in 246 W/m2
10:08 69.1 °F 60.1 °F 30.1 in Calm   1 mph 73% 0 in 262 W/m2
10:13 68.9 °F 60.3 °F 30.1 in Calm   4 mph 74% 0 in 250 W/m2
10:18 68.7 °F 59.4 °F 30.1 in Calm   1 mph 72% 0 in 243 W/m2
10:23 69.1 °F 58.1 °F 30.1 in NW 3 mph 3 mph 68% 0 in 413 W/m2
10:28 69.3 °F 58.6 °F 30.1 in ENE 0.9 mph 3 mph 69% 0 in 380 W/m2
10:33 69.6 °F 58.1 °F 30.1 in East 2.9 mph 6 mph 67% 0 in 617 W/m2
10:38 70.3 °F 58.5 °F 30.1 in West 2.9 mph 4 mph 66% 0 in 693 W/m2
10:43 70.7 °F 57.6 °F 30.1 in WNW 2 mph 4 mph 63% 0 in 700 W/m2
10:48 70.9 °F 57.2 °F 30.1 in West 4 mph 7 mph 62% 0 in 703 W/m2
10:53 70.9 °F 58.1 °F 30.1 in WNW 2.9 mph 3 mph 64% 0 in 668 W/m2
10:58 71.1 °F 58.6 °F 30.1 in SW 2.9 mph 7 mph 65% 0 in 645 W/m2
11:03 71.2 °F 57.6 °F 30.1 in West 0.9 mph 7 mph 62% 0 in 686 W/m2
11:08 71.4 °F 57.7 °F 30.1 in WSW 2.9 mph 4 mph 62% 0 in 636 W/m2
11:14 71.2 °F 57 °F 30.1 in Calm   4 mph 61% 0 in 814 W/m2
11:19 71.2 °F 57 °F 30.1 in WNW 4.9 mph 7 mph 61% 0 in 464 W/m2
11:24 71.1 °F 56.5 °F 30.1 in WNW 4 mph 4 mph 60% 0 in 364 W/m2
11:29 71.2 °F 57.6 °F 30.1 in WSW 2 mph 2 mph 62% 0 in 838 W/m2
11:34 71.4 °F 57.2 °F 30.1 in ESE 2 mph 3 mph 61% 0 in 840 W/m2
11:39 72.1 °F 57.9 °F 30.1 in WNW 2.9 mph 3 mph 61% 0 in 874 W/m2
11:44 72.5 °F 57.7 °F 30.1 in WNW 0.9 mph 4 mph 60% 0 in 779 W/m2
11:49 72.3 °F 57.7 °F 30.1 in Calm   2 mph 60% 0 in 582 W/m2
11:54 72.3 °F 58.6 °F 30.1 in West 0.9 mph 4 mph 62% 0 in 343 W/m2
11:59 72.1 °F 57.6 °F 30.1 in NE 2.9 mph 4 mph 60% 0 in 677 W/m2
12:04 72.3 °F 58.1 °F 30.1 in WNW 2 mph 3 mph 61% 0 in 179 W/m2
12:09 72.3 °F 58.1 °F 30.1 in Calm   2 mph 61% 0 in 142 W/m2
12:14 72.9 °F 58.1 °F 30.1 in Calm   3 mph 60% 0 in 1011 W/m2
12:19 73.9 °F 58.6 °F 30.1 in NW 0.9 mph 4 mph 59% 0 in 1030 W/m2
12:24 74.1 °F 58.8 °F 30.1 in West 6 mph 8 mph 59% 0 in 1005 W/m2
12:29 74.1 °F 57.9 °F 30.1 in NW 2.9 mph 4 mph 57% 0 in 1053 W/m2
12:34 74.7 °F 58.5 °F 30.1 in SW 2.9 mph 7 mph 57% 0 in 1027 W/m2
12:39 74.5 °F 58.3 °F 30.1 in NNW 2.9 mph 7 mph 57% 0 in 1051 W/m2
12:44 74.5 °F 58.8 °F 30.1 in NW 2 mph 8 mph 58% 0 in 939 W/m2
12:49 74.5 °F 59.7 °F 30.1 in WSW 0.9 mph 3 mph 60% 0 in 946 W/m2
12:54 75 °F 59.2 °F 30.1 in West 2 mph 3 mph 58% 0 in 997 W/m2
12:59 74.7 °F 58.5 °F 30.1 in Calm   3 mph 57% 0 in 202 W/m2
13:04 73.9 °F 58.3 °F 30.1 in WSW 4 mph 7 mph 58% 0 in 190 W/m2
13:09 73 °F 57.9 °F 30.1 in West 2.9 mph 7 mph 59% 0 in 183 W/m2
13:14 72.3 °F 57.7 °F 30.1 in WNW 2.9 mph 4 mph 60% 0 in 183 W/m2
13:19 72.3 °F 57.2 °F 30.1 in WNW 0.9 mph 4 mph 59% 0 in 192 W/m2
13:24 72.1 °F 57.6 °F 30.1 in West 0.9 mph 4 mph 60% 0 in 299 W/m2
13:29 72.3 °F 57.7 °F 30.1 in North 2.9 mph 3 mph 60% 0 in 397 W/m2
13:34 72.9 °F 58.6 °F 30.1 in NNW 4.9 mph 6 mph 61% 0 in 1071 W/m2
13:39 74.1 °F 58.5 °F 30.1 in WSW 4 mph 6 mph 58% 0 in 912 W/m2
13:44 74.7 °F 57.9 °F 30.1 in NW 4 mph 8 mph 56% 0 in 900 W/m2
13:49 74.8 °F 57.6 °F 30.1 in WNW 6 mph 7 mph 55% 0 in 896 W/m2
13:54 74.7 °F 57.9 °F 30.1 in North 12 mph 12 mph 56% 0 in 900 W/m2
14:00 75 °F 58.8 °F 30.1 in SE 2.9 mph 3 mph 57% 0 in 933 W/m2
14:05 75.6 °F 57.7 °F 30.1 in NW 2 mph 8 mph 54% 0 in 979 W/m2
14:10 75 °F 58.3 °F 30.1 in ENE 0.9 mph 4 mph 56% 0 in 937 W/m2
14:15 75.4 °F 58.1 °F 30.1 in West 2 mph 6 mph 55% 0 in 911 W/m2
14:20 75.4 °F 57.6 °F 30.1 in Calm   2 mph 54% 0 in 923 W/m2
14:25 75.6 °F 57.7 °F 30.1 in WNW 6.9 mph 10 mph 54% 0 in 940 W/m2
14:30 75.6 °F 56.7 °F 30.1 in SW 2 mph 8 mph 52% 0 in 925 W/m2
14:35 75.9 °F 57.6 °F 30.1 in West 6 mph 6 mph 53% 0 in 838 W/m2
14:40 75.7 °F 57.9 °F 30.1 in WNW 4 mph 8 mph 54% 0 in 786 W/m2
14:45 75.7 °F 57.4 °F 30.1 in NE 4 mph 5 mph 53% 0 in 923 W/m2
14:50 75.9 °F 57.6 °F 30.1 in West 4 mph 4 mph 53% 0 in 165 W/m2
14:55 75.9 °F 57 °F 30.1 in SW 0.9 mph 3 mph 52% 0 in 932 W/m2
15:00 76.6 °F 57.7 °F 30.1 in WNW 2 mph 10 mph 52% 0 in 919 W/m2
15:05 77.2 °F 57 °F 30.1 in WNW 4 mph 7 mph 50% 0 in 944 W/m2
15:10 76.5 °F 56.5 °F 30.1 in SW 6 mph 7 mph 50% 0 in 144 W/m2
15:15 75.9 °F 55.9 °F 30.1 in SSW 0.9 mph 2 mph 50% 0 in 160 W/m2
15:20 75.9 °F 57 °F 30.1 in SSW 0.9 mph 5 mph 52% 0 in 912 W/m2
15:25 76.5 °F 57 °F 30.1 in WNW 6.9 mph 7 mph 51% 0 in 888 W/m2
15:30 76.3 °F 56.3 °F 30.1 in WNW 4 mph 6 mph 50% 0 in 146 W/m2
15:35 76.3 °F 56.8 °F 30.1 in NNE 0.9 mph 5 mph 51% 0 in 858 W/m2
15:40 76.5 °F 57 °F 30.1 in North 4 mph 4 mph 51% 0 in 898 W/m2
15:45 76.5 °F 57 °F 30.1 in WNW 2.9 mph 3 mph 51% 0 in 174 W/m2
15:50 76.5 °F 56.5 °F 30.1 in WNW 2 mph 4 mph 50% 0 in 837 W/m2
15:55 76.6 °F 55.4 °F 30.1 in WSW 4.9 mph 9 mph 48% 0 in 828 W/m2
16:00 77 °F 57 °F 30.1 in SSW 2 mph 6 mph 50% 0 in 765 W/m2
16:05 77.2 °F 56.5 °F 30.1 in SW 4 mph 9 mph 49% 0 in 204 W/m2
16:10 76.8 °F 56.3 °F 30.1 in WNW 8.1 mph 8 mph 49% 0 in 770 W/m2
16:19 76.6 °F 56.7 °F 30.1 in NE 0.9 mph 4 mph 50% 0 in 768 W/m2
16:20 76.6 °F 56.1 °F 30.1 in WNW 4.9 mph 8 mph 49% 0 in 629 W/m2
16:25 76.6 °F 56.1 °F 30.1 in West 4 mph 4 mph 49% 0 in 679 W/m2
16:30 76.8 °F 55.6 °F 30.1 in WNW 0.9 mph 3 mph 48% 0 in 652 W/m2
16:35 76.8 °F 55.6 °F 30.1 in WSW 4.9 mph 8 mph 48% 0 in 225 W/m2
16:40 76.6 °F 55.4 °F 30.1 in SW 2.9 mph 3 mph 48% 0 in 294 W/m2
16:45 76.5 °F 55.4 °F 30.1 in NW 4.9 mph 8 mph 48% 0 in 390 W/m2
16:50 76.5 °F 55.9 °F 30.1 in NW 4 mph 8 mph 49% 0 in 380 W/m2
16:55 75.7 °F 55.2 °F 30.1 in NNW 4.9 mph 8 mph 49% 0 in 276 W/m2
17:00 75.6 °F 56.7 °F 30.1 in WNW 4 mph 7 mph 52% 0 in 327 W/m2
17:05 75.7 °F 56.8 °F 30.1 in NNW 2 mph 3 mph 52% 0 in 225 W/m2
17:10 75.7 °F 56.8 °F 30.1 in East 2 mph 4 mph 52% 0 in 142 W/m2
17:15 75.2 °F 56.3 °F 30.1 in NNW 4 mph 4 mph 52% 0 in 134 W/m2
17:20 74.7 °F 56.5 °F 30.1 in SW 4 mph 6 mph 53% 0 in 200 W/m2
17:25 74.5 °F 56.7 °F 30.1 in WNW 2.9 mph 9 mph 54% 0 in 229 W/m2
17:30 74.3 °F 57.6 °F 30.1 in WNW 2 mph 6 mph 56% 0 in 227 W/m2
17:35 74.3 °F 57 °F 30.1 in NW 4.9 mph 10 mph 55% 0 in 227 W/m2
17:40 74.1 °F 57.4 °F 30.1 in WNW 8.1 mph 8 mph 56% 0 in 209 W/m2
17:45 74.1 °F 57.9 °F 30.1 in SW 4 mph 10 mph 57% 0 in 195 W/m2
17:50 74.1 °F 57.9 °F 30.1 in NW 2.9 mph 4 mph 57% 0 in 188 W/m2
17:55 73.9 °F 58.3 °F 30.1 in WNW 2.9 mph 8 mph 58% 0 in 202 W/m2
18:00 73.9 °F 57.2 °F 30.1 in NW 4 mph 6 mph 56% 0 in 206 W/m2
18:05 73.9 °F 57.7 °F 30.1 in WSW 2.9 mph 7 mph 57% 0 in 188 W/m2
18:10 73.8 °F 57.6 °F 30.1 in West 0.9 mph 7 mph 57% 0 in 179 W/m2
18:15 73.8 °F 58.1 °F 30.1 in West 0.9 mph 3 mph 58% 0 in 181 W/m2
18:20 73.8 °F 58.1 °F 30.1 in WNW 2.9 mph 8 mph 58% 0 in 214 W/m2
18:25 73.8 °F 58.1 °F 30.1 in WNW 4 mph 4 mph 58% 0 in 257 W/m2
18:30 74.3 °F 59 °F 30.1 in WNW 2.9 mph 3 mph 59% 0 in 455 W/m2
18:36 75.2 °F 59.4 °F 30.1 in SSW 0.9 mph 6 mph 58% 0 in 552 W/m2
18:41 76.1 °F 58.8 °F 30.1 in WNW 0.9 mph 3 mph 55% 0 in 265 W/m2
18:46 76.5 °F 59.2 °F 30.1 in West 0.9 mph 4 mph 55% 0 in 360 W/m2
18:51 76.5 °F 58.6 °F 30.1 in West 2 mph 4 mph 54% 0 in 153 W/m2
18:56 75.6 °F 57.7 °F 30.1 in NW 2 mph 7 mph 54% 0 in 156 W/m2
19:01 75 °F 57.2 °F 30.1 in West 2 mph 8 mph 54% 0 in 134 W/m2
19:06 74.7 °F 57.4 °F 30.1 in WSW 2.9 mph 4 mph 55% 0 in 144 W/m2
19:11 74.8 °F 58.1 °F 30.1 in NW 2 mph 8 mph 56% 0 in 327 W/m2
19:16 75.4 °F 58.6 °F 30.1 in WNW 0.9 mph 2 mph 56% 0 in 380 W/m2
19:21 75.9 °F 58.6 °F 30.1 in WNW 2.9 mph 9 mph 55% 0 in 283 W/m2
19:26 75.6 °F 58.3 °F 30.1 in West 2 mph 6 mph 55% 0 in 88 W/m2
19:31 75 °F 58.3 °F 30.1 in WSW 2.9 mph 5 mph 56% 0 in 63 W/m2
19:36 74.5 °F 58.3 °F 30.1 in WSW 2.9 mph 3 mph 57% 0 in 54 W/m2
19:41 73.9 °F 58.3 °F 30.1 in West 2 mph 3 mph 58% 0 in 146 W/m2
19:46 73.9 °F 59.2 °F 30.1 in WSW 2 mph 2 mph 60% 0 in 213 W/m2
19:51 74.5 °F 59.2 °F 30.1 in Calm   1 mph 59% 0 in 167 W/m2
19:56 75 °F 59.2 °F 30.1 in WNW 4 mph 6 mph 58% 0 in 185 W/m2
20:01 75 °F 58.8 °F 30.1 in WNW 2 mph 4 mph 57% 0 in 179 W/m2
20:06 75 °F 58.8 °F 30.1 in WNW 2 mph 5 mph 57% 0 in 176 W/m2
20:11 75.2 °F 58.5 °F 30.1 in NW 2 mph 6 mph 56% 0 in 185 W/m2
20:16 75.2 °F 58.5 °F 30.1 in NW 2 mph 3 mph 56% 0 in 174 W/m2
20:21 75 °F 57.2 °F 30.1 in WNW 2.9 mph 8 mph 54% 0 in 60 W/m2
Juneau County Weather
Compliments of Weather Underground - 4 mb